Shawnee Mission, KS (66221)

8:50 PM CST on February 07, 2016 (GMT -0600)
EDPR (151st and Antioch) | | Change Station
CLOSE
Current Station
Personal Weather Station
Location: Overland Park, KS
Elevation: 1061 ft
Nearby Weather Stations
Active Advisory: Wind Advisory

Elev 1061 ft 38.86 °N, 94.69 °W | Updated 4 minutes ago

Partly Cloudy
Partly Cloudy
39.5 °F
Feels Like 37 °F
N
4.0
Wind Variable Wind from West
Gusts 15.0 mph

Today
High -- | Low -- °F
--% Chance of Precip.
Yesterday
High -- | Low -- °F
Precip. -- in
Pressure 30.06 in
Visibility 10.0 miles
Clouds Few 4500 ft
Windchill 37 °F
Dew Point 25 °F
Humidity 56%
Rainfall 0.00 in
Snow Depth Not available.
7:19 AM 5:46 PM
Waning Crescent, 0% visible
METAR KOJC 080153Z 31020G27KT 10SM FEW045 04/M04 A3005 RMK AO2 PK WND 32040/0121 SLP180 T00391044
Pressure 30.06 in
Visibility 10.0 miles
Clouds Few 4500 ft
Windchill 37 °F
Dew Point 25 °F
Humidity 56%
Rainfall 0.00 in
Snow Depth Not available.
7:19 AM 5:46 PM
Waning Crescent, 0% visible
METAR KOJC 080153Z 31020G27KT 10SM FEW045 04/M04 A3005 RMK AO2 PK WND 32040/0121 SLP180 T00391044

10-Day Weather Forecast

Almanac

Astronomy

Feb. 07, 2016 Rise Set
Actual Time
Civil Twilight
Nautical Twilight
Astronomical Twilight
Moon
Length of Visible Light
Length of Day
Tomorrow will be .
, % of the Moon is Illuminated

Today's Extremes

State Highs State Lows

Community

WunderPhotos

Upload Photos

1,891,373 photos uploaded!

WunderBlog® & News

Nearby

Air Quality

  Air Quality AQ Index Pollutant
Not available.

Snow Depth

Station Depth Elevation

Earthquake Activity

City Distance Mag. Time & Date
Minimum magnitude displayed is 2.5.

Coastal Water Temperatures

Place Temperature

Stations

Nearby Weather Stations

Station Location Temp. Windchill Dew Point Humidity Wind Precip. Elev Updated Type
                   

Watches & Warnings

Wind Advisory
Issued: 2:42 PM CST Feb. 7, 2016 – National Weather Service

... Wind Advisory in effect from 8 am to 6 PM CST Monday...

The National Weather Service in Kansas City/Pleasant Hill has
issued a Wind Advisory... which is in effect from 8 am to 6 PM CST
Monday.

* Timing... Monday morning through Monday evening

* winds... sustained winds up to 30 mph and gusts to 45 mph.

* Impacts... strong Crosswinds on highways could make travel
difficult... particularly for high profile vehicles.

Precautionary/preparedness actions...

A Wind Advisory means that winds of 35 mph are expected. Winds
this strong can make driving difficult... especially for high
profile vehicles. Use extra caution.



Cdb